Mahomet, Texas
Current Conditions -  °F | °C
As of 8:53 PM on Sunday 23 Nov 2014 (Local Time) from KBMQ Reporting Station
Clear Clear  
Wind Chill: 62°   Ceiling: Unl
Heat Index: 62°   Visibility: NA
Dew Point: 38°   Wind: 13mph
Humidity: 41%   Direction: 350°N
Pressure: 29.77"   Gusts: 23mph
Location:  30.7452°N, 98.043°W
Report Text: KBMQ 240253Z AUTO 35011G20KT CLR 17/03 A2977 RMK AO2 PRESRR SLP070 T01670033 53048 $
Loading
Personal Weather Stations






























Interactive Weather Map New forecast layout! Learn more

10-Day Weather Forecast

Advertisements
Track Severe Weather on mobile